createdAt,value
2023-12-01T00:01:46.228Z,5.45
2023-12-01T00:04:15.442Z,5.65
2023-12-01T00:06:43.309Z,6.63
2023-12-01T00:09:11.271Z,6.50
2023-12-01T00:11:39.014Z,7.10
2023-12-01T00:14:06.778Z,7.50
2023-12-01T00:16:34.564Z,7.55
2023-12-01T00:19:02.410Z,8.27
2023-12-01T00:21:31.551Z,8.57
2023-12-01T00:23:59.320Z,9.38
2023-12-01T00:26:27.047Z,10.20
2023-12-01T00:29:00.136Z,10.13
2023-12-01T00:31:27.906Z,10.43
2023-12-01T00:33:55.721Z,11.90
2023-12-01T00:36:23.527Z,13.30
2023-12-01T00:38:52.823Z,13.52
2023-12-01T00:41:20.815Z,14.13
2023-12-01T00:43:49.145Z,15.88
2023-12-01T00:46:17.133Z,17.73
2023-12-01T00:48:44.929Z,18.30
2023-12-01T00:51:16.581Z,20.70
2023-12-01T00:53:44.774Z,23.05
2023-12-01T00:56:13.960Z,24.65
2023-12-01T00:58:43.375Z,26.90
2023-12-01T01:01:11.201Z,27.98
2023-12-01T01:03:39.044Z,30.42
2023-12-01T01:06:07.475Z,34.60
2023-12-01T01:08:35.299Z,36.40
2023-12-01T01:11:03.078Z,36.65
2023-12-01T01:13:33.384Z,40.45
2023-12-01T01:16:01.265Z,42.92
2023-12-01T01:18:29.080Z,44.83
2023-12-01T01:20:56.847Z,47.10
2023-12-01T01:23:24.822Z,50.20
2023-12-01T01:25:52.770Z,52.13
2023-12-01T01:28:22.720Z,55.92
2023-12-01T01:30:51.847Z,58.10
2023-12-01T01:33:19.584Z,59.90
2023-12-01T01:35:47.492Z,64.15
2023-12-01T01:38:15.304Z,62.38
2023-12-01T01:40:43.062Z,66.85
2023-12-01T01:43:10.850Z,74.38
2023-12-01T01:45:39.044Z,74.43
2023-12-01T01:48:08.367Z,78.70
2023-12-01T01:50:36.186Z,79.75
2023-12-01T01:53:04.188Z,84.88
2023-12-01T01:55:32.094Z,86.75
2023-12-01T01:57:59.852Z,88.15
2023-12-01T02:00:28.241Z,92.35
2023-12-01T02:02:56.132Z,97.57
2023-12-01T02:05:25.189Z,96.82
2023-12-01T02:07:53.158Z,103.97
2023-12-01T02:10:21.830Z,107.10
2023-12-01T02:12:52.344Z,103.68
2023-12-01T02:15:20.343Z,111.00
2023-12-01T02:17:49.197Z,113.97
2023-12-01T02:20:17.436Z,113.18
2023-12-01T02:22:47.648Z,118.05
2023-12-01T02:25:15.739Z,117.20
2023-12-01T02:27:43.590Z,113.50
2023-12-01T02:30:12.327Z,121.43
2023-12-01T02:32:41.110Z,128.27
2023-12-01T02:35:11.106Z,126.60
2023-12-01T02:37:39.354Z,130.95
2023-12-01T02:40:16.750Z,132.05
2023-12-01T02:42:49.158Z,129.63
2023-12-01T02:45:16.949Z,138.35
2023-12-01T02:47:46.608Z,142.90
2023-12-01T02:50:14.642Z,141.35
2023-12-01T02:52:43.369Z,141.75
2023-12-01T02:55:12.717Z,140.15
2023-12-01T02:57:41.744Z,144.18
2023-12-01T03:00:14.739Z,142.13
2023-12-01T03:02:42.768Z,146.13
2023-12-01T03:05:10.978Z,143.93
2023-12-01T03:07:38.882Z,150.93
2023-12-01T03:10:08.621Z,146.48
2023-12-01T03:12:37.909Z,149.27
2023-12-01T03:15:09.712Z,150.63
2023-12-01T03:17:38.478Z,149.93
2023-12-01T03:20:12.145Z,155.15
2023-12-01T03:22:40.591Z,148.65
2023-12-01T03:25:11.175Z,146.20
2023-12-01T03:27:43.720Z,149.10
2023-12-01T03:30:14.864Z,158.27
2023-12-01T03:32:46.602Z,150.25
2023-12-01T03:35:15.097Z,152.05
2023-12-01T03:37:42.890Z,145.75
2023-12-01T03:40:13.585Z,147.13
2023-12-01T03:42:44.219Z,153.07
2023-12-01T03:45:13.232Z,144.70
2023-12-01T03:47:41.492Z,148.20
2023-12-01T03:50:12.705Z,143.20
2023-12-01T03:52:42.513Z,144.70
2023-12-01T03:55:11.441Z,141.70
2023-12-01T03:57:39.485Z,138.98
2023-12-01T04:00:11.060Z,139.48
2023-12-01T04:02:42.528Z,148.45
2023-12-01T04:05:17.573Z,146.77
2023-12-01T04:07:46.717Z,140.23
2023-12-01T04:10:14.668Z,136.48
2023-12-01T04:12:45.553Z,136.75
2023-12-01T04:15:16.848Z,134.18
2023-12-01T04:17:45.040Z,132.20
2023-12-01T04:20:23.562Z,129.05
2023-12-01T04:22:52.237Z,123.78
2023-12-01T04:25:20.017Z,121.53
2023-12-01T04:27:48.316Z,119.05
2023-12-01T04:30:18.419Z,116.57
2023-12-01T04:32:47.394Z,114.15
2023-12-01T04:35:16.050Z,106.45
2023-12-01T04:37:44.005Z,103.15
2023-12-01T04:40:16.379Z,101.70
2023-12-01T04:42:45.945Z,100.65
2023-12-01T04:45:14.289Z,94.82
2023-12-01T04:47:44.006Z,90.68
2023-12-01T04:50:16.744Z,86.70
2023-12-01T04:52:44.613Z,86.43
2023-12-01T04:55:14.467Z,80.95
2023-12-01T04:57:42.585Z,78.63
2023-12-01T05:00:20.168Z,75.32
2023-12-01T05:02:50.248Z,70.70
2023-12-01T05:05:18.558Z,69.35
2023-12-01T05:07:46.568Z,67.68
2023-12-01T05:10:16.608Z,63.58
2023-12-01T05:12:45.683Z,60.22
2023-12-01T05:15:17.516Z,59.83
2023-12-01T05:17:46.435Z,57.45
2023-12-01T05:20:18.994Z,55.30
2023-12-01T05:22:47.266Z,53.63
2023-12-01T05:25:16.004Z,49.65
2023-12-01T05:27:45.370Z,48.55
2023-12-01T05:30:14.778Z,47.05
2023-12-01T05:32:43.573Z,45.33
2023-12-01T05:35:12.503Z,41.83
2023-12-01T05:37:42.088Z,41.25
2023-12-01T05:40:11.238Z,39.70
2023-12-01T05:42:39.172Z,38.53
2023-12-01T05:45:12.379Z,37.00
2023-12-01T05:47:45.641Z,35.38
2023-12-01T05:50:14.701Z,33.92
2023-12-01T05:52:44.598Z,31.98
2023-12-01T05:55:16.328Z,30.77
2023-12-01T05:57:45.402Z,28.50
2023-12-01T06:00:16.299Z,27.20
2023-12-01T06:02:45.043Z,27.52
2023-12-01T06:05:13.579Z,25.23
2023-12-01T06:07:43.496Z,23.02
2023-12-01T06:10:13.006Z,23.48
2023-12-01T06:12:40.928Z,22.35
2023-12-01T06:15:10.647Z,20.75
2023-12-01T06:17:38.592Z,20.77
2023-12-01T06:20:18.017Z,19.33
2023-12-01T06:22:49.027Z,18.40
2023-12-01T06:25:18.665Z,17.33
2023-12-01T06:27:46.616Z,17.02
2023-12-01T06:30:15.658Z,16.30
2023-12-01T06:32:43.520Z,15.32
2023-12-01T06:35:12.033Z,14.80
2023-12-01T06:37:40.043Z,13.80
2023-12-01T06:40:12.621Z,13.20
2023-12-01T06:42:43.435Z,12.40
2023-12-01T06:45:12.482Z,11.48
2023-12-01T06:47:41.879Z,10.80
2023-12-01T06:50:11.818Z,11.10
2023-12-01T06:52:39.720Z,10.57
2023-12-01T06:55:09.205Z,10.18
2023-12-01T06:57:38.081Z,9.43
2023-12-01T07:00:09.429Z,9.23
2023-12-01T07:02:38.889Z,8.68
2023-12-01T07:05:07.684Z,8.50
2023-12-01T07:07:38.320Z,7.88
2023-12-01T07:10:07.505Z,7.50
2023-12-01T07:12:35.738Z,7.82
2023-12-01T07:15:04.138Z,6.97
2023-12-01T07:17:33.230Z,6.43
2023-12-01T07:20:01.068Z,6.13
2023-12-01T07:22:28.850Z,5.90
2023-12-01T07:24:56.630Z,5.80
2023-12-01T07:27:26.589Z,5.63
2023-12-01T07:29:54.403Z,5.50
2023-12-01T07:32:22.166Z,5.30
2023-12-01T07:34:51.252Z,5.10
2023-12-01T07:37:19.000Z,4.72
2023-12-01T07:39:46.781Z,4.60
2023-12-01T07:42:14.558Z,4.20
2023-12-01T07:44:42.444Z,4.50
2023-12-01T07:47:13.252Z,4.30
2023-12-01T07:49:42.635Z,4.07
2023-12-01T07:52:11.796Z,3.83
2023-12-01T07:54:40.221Z,3.80
2023-12-01T07:57:08.029Z,3.65
2023-12-01T07:59:37.128Z,3.70
2023-12-01T08:02:05.233Z,3.38
2023-12-01T08:04:33.431Z,3.35
2023-12-01T08:07:01.433Z,3.55
2023-12-01T08:09:32.280Z,3.40
2023-12-01T08:12:00.181Z,3.25
2023-12-01T08:14:28.001Z,3.30
2023-12-01T08:16:55.921Z,3.05
2023-12-01T08:19:23.877Z,3.15
2023-12-01T08:21:53.096Z,3.00
2023-12-01T08:24:31.406Z,2.85
2023-12-01T08:27:01.957Z,2.90
2023-12-01T08:29:29.798Z,2.75
2023-12-01T08:31:58.362Z,2.90
2023-12-01T08:34:26.589Z,2.90
2023-12-01T08:36:54.709Z,2.60
2023-12-01T08:39:22.801Z,2.75
2023-12-01T08:41:54.398Z,2.65
2023-12-01T08:44:23.598Z,2.50
2023-12-01T08:46:51.438Z,2.47
2023-12-01T08:49:20.279Z,2.55
2023-12-01T08:51:48.087Z,2.65
2023-12-01T08:54:21.681Z,2.60
2023-12-01T08:56:50.224Z,2.60
2023-12-01T08:59:18.862Z,2.30
2023-12-01T09:01:48.166Z,2.50
2023-12-01T09:04:16.099Z,2.53
2023-12-01T09:06:43.896Z,2.58
2023-12-01T09:09:13.575Z,2.45
2023-12-01T09:11:41.568Z,2.50
2023-12-01T09:14:09.346Z,2.33
2023-12-01T09:16:37.146Z,2.33
2023-12-01T09:19:08.031Z,2.47
2023-12-01T09:21:36.109Z,2.30
2023-12-01T09:24:03.971Z,2.38
2023-12-01T09:26:32.639Z,2.70
2023-12-01T09:29:00.396Z,2.58
2023-12-01T09:31:28.193Z,2.60
2023-12-01T09:33:56.148Z,2.50
2023-12-01T09:36:27.111Z,2.50
2023-12-01T09:38:55.883Z,2.50
2023-12-01T09:41:23.689Z,2.40
2023-12-01T09:43:56.906Z,2.28
2023-12-01T09:46:25.213Z,2.25
2023-12-01T09:48:53.095Z,2.20
2023-12-01T09:51:21.033Z,1.90
2023-12-01T09:53:50.267Z,2.25
2023-12-01T09:56:20.375Z,2.30
2023-12-01T09:58:48.115Z,2.47
2023-12-01T10:01:16.148Z,2.35
2023-12-01T10:03:44.277Z,2.03
2023-12-01T10:06:12.403Z,2.15
2023-12-01T10:08:40.234Z,2.15
2023-12-01T10:11:21.913Z,2.17
2023-12-01T10:13:50.600Z,2.20
2023-12-01T10:16:18.427Z,2.45
2023-12-01T10:18:59.435Z,2.05
2023-12-01T10:21:44.762Z,2.17
2023-12-01T10:24:21.769Z,1.90
2023-12-01T10:26:52.014Z,2.10
2023-12-01T10:29:30.529Z,2.00
2023-12-01T10:31:59.320Z,2.13
2023-12-01T10:34:27.269Z,1.95
2023-12-01T10:36:55.455Z,1.95
2023-12-01T10:39:26.456Z,2.20
2023-12-01T10:42:00.982Z,2.20
2023-12-01T10:44:30.702Z,2.20
2023-12-01T10:46:58.472Z,2.05
2023-12-01T10:49:26.281Z,2.13
2023-12-01T10:51:54.849Z,2.10
2023-12-01T10:54:24.724Z,1.95
2023-12-01T10:57:05.246Z,2.10
2023-12-01T10:59:33.043Z,2.10
2023-12-01T11:02:01.510Z,1.95
2023-12-01T11:04:30.366Z,2.03
2023-12-01T11:07:09.945Z,2.08
2023-12-01T11:09:41.608Z,1.98
2023-12-01T11:12:14.167Z,1.90
2023-12-01T11:14:42.106Z,2.25
2023-12-01T11:17:10.338Z,2.10
2023-12-01T11:19:39.643Z,2.10
2023-12-01T11:22:25.391Z,2.00
2023-12-01T11:24:53.161Z,1.80
2023-12-01T11:27:22.721Z,2.00
2023-12-01T11:30:00.520Z,1.88
2023-12-01T11:32:33.220Z,1.63
2023-12-01T11:35:10.286Z,1.75
2023-12-01T11:38:00.871Z,1.98
2023-12-01T11:40:28.838Z,1.90
2023-12-01T11:43:06.470Z,1.70
2023-12-01T11:45:43.179Z,2.08
2023-12-01T11:48:11.402Z,1.67
2023-12-01T11:50:41.777Z,1.67
2023-12-01T11:53:14.635Z,1.75
2023-12-01T11:55:42.583Z,1.60
2023-12-01T11:58:15.616Z,1.85
2023-12-01T12:00:44.724Z,1.70
2023-12-01T12:03:21.033Z,1.63
2023-12-01T12:05:49.014Z,2.10
2023-12-01T12:08:18.251Z,2.03
2023-12-01T12:10:46.222Z,2.00
2023-12-01T12:13:15.488Z,2.35
2023-12-01T12:15:43.347Z,2.17
2023-12-01T12:18:11.275Z,2.13
2023-12-01T12:20:39.210Z,2.10
2023-12-01T12:23:07.094Z,2.50
2023-12-01T12:25:38.213Z,2.25
2023-12-01T12:28:11.434Z,2.50
2023-12-01T12:30:41.425Z,2.17
2023-12-01T12:33:10.897Z,2.42
2023-12-01T12:35:38.787Z,2.35
2023-12-01T12:38:08.086Z,2.40
2023-12-01T12:40:36.053Z,2.50
2023-12-01T12:43:07.032Z,2.22
2023-12-01T12:45:34.884Z,2.20
2023-12-01T12:48:10.699Z,2.03
2023-12-01T12:50:42.430Z,2.38
2023-12-01T12:53:10.221Z,2.83
2023-12-01T12:55:37.959Z,20.42
2023-12-01T12:58:05.756Z,3.13
2023-12-01T13:00:33.481Z,3.40
2023-12-01T13:03:01.327Z,2.80
2023-12-01T13:05:31.262Z,2.80
2023-12-01T13:07:59.038Z,2.88
2023-12-01T13:10:26.824Z,2.50
2023-12-01T13:12:54.566Z,2.20
2023-12-01T13:15:22.402Z,2.42
2023-12-01T13:17:50.188Z,2.55
2023-12-01T13:20:18.089Z,3.28
2023-12-01T13:22:47.199Z,2.97
2023-12-01T13:25:14.997Z,2.75
2023-12-01T13:27:42.725Z,2.88
2023-12-01T13:30:11.847Z,3.47
2023-12-01T13:32:39.703Z,3.40
2023-12-01T13:35:08.929Z,4.13
2023-12-01T13:37:38.428Z,3.15
2023-12-01T13:40:10.984Z,3.92
2023-12-01T13:42:38.894Z,4.28
2023-12-01T13:45:10.007Z,3.50
2023-12-01T13:47:40.431Z,4.55
2023-12-01T13:50:09.280Z,4.47
2023-12-01T13:52:37.077Z,4.13
2023-12-01T13:55:05.157Z,4.00
2023-12-01T13:57:37.266Z,4.18
2023-12-01T14:00:07.623Z,4.43
2023-12-01T14:02:39.452Z,4.38
2023-12-01T14:05:08.001Z,4.75
2023-12-01T14:07:35.872Z,4.95
2023-12-01T14:10:04.317Z,3.95
2023-12-01T14:12:32.100Z,4.82
2023-12-01T14:15:01.865Z,4.68
2023-12-01T14:17:29.645Z,4.95
2023-12-01T14:19:57.378Z,5.22
2023-12-01T14:22:25.154Z,5.18
2023-12-01T14:24:52.967Z,4.75
2023-12-01T14:27:21.874Z,5.13
2023-12-01T14:29:50.069Z,5.38
2023-12-01T14:32:21.698Z,4.38
2023-12-01T14:34:51.533Z,4.90
2023-12-01T14:37:20.003Z,4.50
2023-12-01T14:39:47.848Z,4.57
2023-12-01T14:42:15.766Z,4.47
2023-12-01T14:44:43.658Z,4.40
2023-12-01T14:47:11.401Z,4.97
2023-12-01T14:49:40.466Z,4.95
2023-12-01T14:52:08.376Z,5.43
2023-12-01T14:54:36.166Z,5.15
2023-12-01T14:57:04.140Z,6.78
2023-12-01T14:59:31.971Z,5.80
2023-12-01T15:02:00.335Z,6.13
2023-12-01T15:04:28.263Z,6.22
2023-12-01T15:06:57.351Z,5.60
2023-12-01T15:09:25.996Z,5.32
2023-12-01T15:11:53.972Z,6.05
2023-12-01T15:14:21.819Z,5.38
2023-12-01T15:16:49.623Z,4.07
2023-12-01T15:19:17.387Z,4.80
2023-12-01T15:21:45.149Z,5.22
2023-12-01T15:24:14.312Z,5.03
2023-12-01T15:26:42.069Z,4.45
2023-12-01T15:29:09.850Z,4.78
2023-12-01T15:31:37.654Z,4.63
2023-12-01T15:34:05.452Z,4.30
2023-12-01T15:36:35.499Z,4.25
2023-12-01T15:39:04.935Z,5.25
2023-12-01T15:41:34.110Z,12.07
2023-12-01T15:44:01.909Z,4.05
2023-12-01T15:46:29.701Z,4.80
2023-12-01T15:48:58.400Z,5.30
2023-12-01T15:51:26.322Z,4.75
2023-12-01T15:53:54.182Z,5.28
2023-12-01T15:56:22.087Z,4.53
2023-12-01T15:58:52.021Z,4.28
2023-12-01T16:01:19.823Z,4.88
2023-12-01T16:03:47.685Z,5.75
2023-12-01T16:06:15.547Z,4.43
2023-12-01T16:08:43.381Z,6.45
2023-12-01T16:11:11.142Z,7.82
2023-12-01T16:13:38.979Z,6.13
2023-12-01T16:16:09.080Z,5.28
2023-12-01T16:18:37.083Z,5.25
2023-12-01T16:21:05.339Z,5.63
2023-12-01T16:23:33.253Z,6.15
2023-12-01T16:26:01.037Z,7.38
2023-12-01T16:28:28.792Z,6.18
2023-12-01T16:30:56.567Z,9.05
2023-12-01T16:33:26.388Z,5.78
2023-12-01T16:35:54.398Z,7.93
2023-12-01T16:38:22.247Z,8.48
2023-12-01T16:40:50.011Z,7.55
2023-12-01T16:43:17.738Z,37.78
2023-12-01T16:45:45.530Z,8.15
2023-12-01T16:48:13.531Z,8.68
2023-12-01T16:50:43.424Z,6.72
2023-12-01T16:53:11.207Z,8.38
2023-12-01T16:55:39.629Z,7.53
2023-12-01T16:58:16.633Z,8.00
2023-12-01T17:00:51.801Z,7.72
2023-12-01T17:03:19.759Z,7.05
2023-12-01T17:05:48.942Z,7.85
2023-12-01T17:08:16.784Z,8.32
2023-12-01T17:10:44.572Z,9.32
2023-12-01T17:13:12.980Z,9.05
2023-12-01T17:15:41.104Z,9.07
2023-12-01T17:18:09.019Z,8.27
2023-12-01T17:20:37.555Z,8.52
2023-12-01T17:23:06.670Z,8.00
2023-12-01T17:25:34.482Z,9.35
2023-12-01T17:28:02.618Z,8.98
2023-12-01T17:30:30.411Z,7.78
2023-12-01T17:32:58.279Z,7.90
2023-12-01T17:35:26.061Z,7.40
2023-12-01T17:37:55.239Z,7.32
2023-12-01T17:40:24.326Z,7.57
2023-12-01T17:42:52.386Z,6.55
2023-12-01T17:45:20.176Z,6.72
2023-12-01T17:47:48.093Z,7.10
2023-12-01T17:50:16.286Z,7.10
2023-12-01T17:52:44.051Z,6.80
2023-12-01T17:55:11.784Z,6.82
2023-12-01T17:57:40.994Z,7.65
2023-12-01T18:00:09.867Z,7.15
2023-12-01T18:02:41.024Z,6.57
2023-12-01T18:05:09.481Z,6.72
2023-12-01T18:07:37.280Z,6.40
2023-12-01T18:10:05.445Z,6.43
2023-12-01T18:12:33.182Z,7.55
2023-12-01T18:15:02.427Z,7.80
2023-12-01T18:17:30.263Z,8.40
2023-12-01T18:19:58.052Z,9.93
2023-12-01T18:22:25.777Z,8.88
2023-12-01T18:24:53.647Z,7.25
2023-12-01T18:27:25.265Z,7.63
2023-12-01T18:29:53.690Z,7.50
2023-12-01T18:32:22.783Z,6.75
2023-12-01T18:34:50.494Z,6.93
2023-12-01T18:37:18.229Z,7.05
2023-12-01T18:39:46.160Z,8.02
2023-12-01T18:42:14.020Z,7.50
2023-12-01T18:44:41.823Z,7.28
2023-12-01T18:47:09.738Z,6.10
2023-12-01T18:49:38.969Z,7.20
2023-12-01T18:52:07.290Z,10.77
2023-12-01T18:54:35.034Z,6.35
2023-12-01T18:57:21.057Z,6.43
2023-12-01T18:59:48.878Z,6.47
2023-12-01T19:02:16.715Z,6.47
2023-12-01T19:04:45.939Z,6.18
2023-12-01T19:07:13.760Z,5.90
2023-12-01T19:09:41.581Z,5.65
2023-12-01T19:12:09.619Z,6.75
2023-12-01T19:14:37.388Z,8.82
2023-12-01T19:17:05.451Z,7.15
2023-12-01T19:19:33.264Z,7.38
2023-12-01T19:22:02.405Z,7.70
2023-12-01T19:24:30.212Z,6.78
2023-12-01T19:26:57.996Z,8.88
2023-12-01T19:29:25.980Z,7.30
2023-12-01T19:31:53.723Z,6.80
2023-12-01T19:34:22.088Z,7.53
2023-12-01T19:36:49.897Z,6.93
2023-12-01T19:39:19.020Z,8.63
2023-12-01T19:41:47.696Z,7.05
2023-12-01T19:44:15.615Z,7.25
2023-12-01T19:46:43.401Z,7.22
2023-12-01T19:49:11.300Z,6.95
2023-12-01T19:51:39.071Z,6.85
2023-12-01T19:54:06.971Z,8.10
2023-12-01T19:57:01.218Z,7.63
2023-12-01T20:03:42.330Z,7.53
2023-12-01T20:07:04.704Z,7.65
2023-12-01T20:09:32.532Z,8.80
2023-12-01T20:12:01.661Z,7.72
2023-12-01T20:14:29.438Z,7.35
2023-12-01T20:16:57.178Z,7.05
2023-12-01T20:19:25.033Z,6.82
2023-12-01T20:21:52.799Z,7.15
2023-12-01T20:24:20.573Z,6.85
2023-12-01T20:26:48.631Z,6.90
2023-12-01T20:29:17.892Z,6.35
2023-12-01T20:31:46.179Z,6.50
2023-12-01T20:34:14.452Z,6.97
2023-12-01T20:36:43.094Z,5.75
2023-12-01T20:39:10.909Z,6.43
2023-12-01T20:41:38.655Z,6.32
2023-12-01T20:44:06.586Z,6.10
2023-12-01T20:46:36.300Z,6.18
2023-12-01T20:49:04.829Z,6.25
2023-12-01T20:51:32.871Z,6.43
2023-12-01T20:54:00.687Z,7.28
2023-12-01T20:56:28.489Z,6.45
2023-12-01T20:58:56.244Z,6.97
2023-12-01T21:01:24.035Z,7.05
2023-12-01T21:03:53.305Z,7.35
2023-12-01T21:06:21.169Z,6.80
2023-12-01T21:08:48.979Z,6.97
2023-12-01T21:11:16.783Z,6.65
2023-12-01T21:13:45.676Z,6.65
2023-12-01T21:16:13.488Z,6.95
2023-12-01T21:18:41.336Z,6.72
2023-12-01T21:21:13.523Z,6.97
2023-12-01T21:23:41.520Z,6.82
2023-12-01T21:26:09.560Z,6.53
2023-12-01T21:28:37.369Z,6.30
2023-12-01T21:31:05.468Z,7.07
2023-12-01T21:33:33.338Z,7.07
2023-12-01T21:36:01.199Z,6.38
2023-12-01T21:38:30.281Z,6.63
2023-12-01T21:40:58.037Z,6.75
2023-12-01T21:43:25.842Z,6.03
2023-12-01T21:45:53.586Z,6.78
2023-12-01T21:48:21.405Z,6.30
2023-12-01T21:50:49.351Z,6.55
2023-12-01T21:53:17.199Z,6.60
2023-12-01T21:55:46.470Z,6.28
2023-12-01T21:58:14.320Z,5.88
2023-12-01T22:00:42.094Z,6.32
2023-12-01T22:03:11.745Z,6.38
2023-12-01T22:05:39.562Z,5.93
2023-12-01T22:08:07.364Z,5.70
2023-12-01T22:10:36.634Z,5.70
2023-12-01T22:13:05.774Z,5.93
2023-12-01T22:15:33.568Z,6.18
2023-12-01T22:18:01.342Z,6.00
2023-12-01T22:20:29.121Z,6.10
2023-12-01T22:22:56.933Z,5.72
2023-12-01T22:25:24.692Z,5.80
2023-12-01T22:27:52.400Z,5.97
2023-12-01T22:30:21.568Z,6.03
2023-12-01T22:32:49.378Z,6.38
2023-12-01T22:35:17.346Z,5.28
2023-12-01T22:37:45.095Z,5.18
2023-12-01T22:40:13.905Z,6.03
2023-12-01T22:42:41.644Z,5.50
2023-12-01T22:45:10.078Z,5.60
2023-12-01T22:47:39.250Z,5.57
2023-12-01T22:50:08.143Z,5.35
2023-12-01T22:52:35.880Z,5.72
2023-12-01T22:55:03.648Z,5.93
2023-12-01T22:57:32.130Z,5.72
2023-12-01T22:59:59.933Z,5.75
2023-12-01T23:02:27.812Z,5.85
2023-12-01T23:04:57.057Z,5.63
2023-12-01T23:07:24.907Z,6.45
2023-12-01T23:09:52.886Z,5.75
2023-12-01T23:12:20.646Z,6.30
2023-12-01T23:14:48.575Z,7.00
2023-12-01T23:17:16.325Z,7.10
2023-12-01T23:19:44.303Z,7.38
2023-12-01T23:22:13.437Z,8.00
2023-12-01T23:24:43.676Z,7.57
2023-12-01T23:27:16.880Z,9.10
2023-12-01T23:29:50.597Z,9.52
2023-12-01T23:32:18.388Z,10.65
2023-12-01T23:34:46.328Z,11.00
2023-12-01T23:37:15.433Z,11.60
2023-12-01T23:39:46.276Z,12.90
2023-12-01T23:42:14.309Z,14.07
2023-12-01T23:44:42.045Z,15.13
2023-12-01T23:47:09.774Z,16.42
2023-12-01T23:49:37.563Z,18.27
2023-12-01T23:52:05.735Z,18.92
2023-12-01T23:54:35.030Z,20.65
2023-12-01T23:57:02.758Z,23.23
2023-12-01T23:59:30.591Z,24.95
